Terminal Aerodrome Forecast
Issued by NWS Shreveport, LA

Home | Current Version | Previous Version | Text Only | Print | Product List | Glossary On
Versions: 1 2 3 4 5 6 7 8 9 10 11 12 13 14
000
FTUS44 KSHV 281426 AAA
TAFTYR
TAF AMD
KTYR 281426Z 2814/2912 20007KT P6SM VCSH SCT060 OVC120
      TEMPO 2814/2816 5SM -SHRA BR OVC009
     FM281700 21007KT P6SM VCTS SCT050CB OVC120
     FM290200 18005KT P6SM FEW120 BKN250=

USA.gov is the U.S. government's official web portal to all federal, state and local government web resources and services.